HAAB Airport Information

Runway Information
Runway 07L Length 12139 ft width 148 ft
Elevation 7617 ft Threshold 825 ft Heading 74
Runway 25R Length 12139 ft Width 148 ft
Elevation 7604 ft Threshold 1235 ft Heading 254
Runway 07R Length 12467 ft width 148 ft
Elevation 7617 ft Threshold 1185 ft Heading 74
Runway 25L Length 12467 ft Width 148 ft
Elevation 7594 ft Threshold 1170 ft Heading 254
Airport Frequencies
Type APP Name APP Frequency 119.7 MHZ
Type GND Name GND Frequency 121.9 MHZ
Type TWR Name TWR Frequency 118.1 MHZ
Airport Navaids
Type NDB Name Addis Abeba Frequency 333 KHZ
Type VOR-DME Name Addis Abeba Frequency 112900 KHZ
Type NDB Name Bole Frequency 352 KHZ
Type VOR-DME Name Gawasa Frequency 115900 KHZ
Airport Weather Information & NOTAM
ADDS - METARS form results

(0217 UTC 13 June 2021)
Data provider http://aviationweather.gov/metar/data/
 
METAR text: HAAB 130200Z 31004KT 9999 FEW025 15/08 Q1025
Conditions at: HAAB (ADDIS ABABA/BOLE, ET) observed 0200 UTC 13 June 2021
Temperature: 15.0°C (59°F)
Dewpoint: 8.0°C (46°F) [RH = 63%]
Pressure (altimeter): 30.27 inches Hg (1025.0 mb)
Winds: from the NW (310 degrees) at 5 MPH (4 knots; 2.1 m/s)
Visibility: 6 or more miles (10+ km)
Ceiling: at least 12,000 feet AGL
Clouds: few clouds at 2500 feet AGL
Weather: no significant weather observed at this time